createdAt,value
2022-08-07T00:02:36.132Z,91.80
2022-08-07T00:04:06.770Z,91.90
2022-08-07T00:06:36.904Z,92.00
2022-08-07T00:09:22.284Z,92.10
2022-08-07T00:11:56.045Z,92.20
2022-08-07T00:14:31.265Z,92.20
2022-08-07T00:17:03.008Z,92.30
2022-08-07T00:19:59.943Z,92.40
2022-08-07T00:22:24.848Z,92.50
2022-08-07T00:25:11.178Z,92.50
2022-08-07T00:27:53.345Z,92.60
2022-08-07T00:30:27.486Z,92.60
2022-08-07T00:33:02.691Z,92.70
2022-08-07T00:35:30.487Z,92.80
2022-08-07T00:38:01.323Z,92.80
2022-08-07T00:40:39.775Z,92.80
2022-08-07T00:44:00.198Z,92.90
2022-08-07T00:46:04.641Z,92.90
2022-08-07T00:48:34.845Z,92.90
2022-08-07T00:51:02.812Z,92.90
2022-08-07T00:53:39.212Z,92.90
2022-08-07T00:56:21.790Z,93.00
2022-08-07T00:58:49.742Z,93.00
2022-08-07T01:01:19.127Z,93.00
2022-08-07T01:03:56.509Z,93.10
2022-08-07T01:06:30.089Z,93.20
2022-08-07T01:08:58.418Z,93.30
2022-08-07T01:12:23.498Z,93.00
2022-08-07T01:14:17.724Z,93.10
2022-08-07T01:16:51.966Z,93.10
2022-08-07T01:19:21.575Z,93.10
2022-08-07T01:21:53.252Z,93.10
2022-08-07T01:24:25.716Z,93.10
2022-08-07T01:26:55.255Z,93.00
2022-08-07T01:29:34.369Z,93.00
2022-08-07T01:32:05.449Z,92.90
2022-08-07T01:34:33.652Z,92.90
2022-08-07T01:37:03.707Z,92.90
2022-08-07T01:39:41.445Z,92.90
2022-08-07T01:42:39.543Z,92.90
2022-08-07T01:45:04.533Z,92.90
2022-08-07T01:48:29.176Z,93.00
2022-08-07T01:50:22.686Z,93.10
2022-08-07T01:53:00.278Z,93.10
2022-08-07T01:55:36.691Z,93.20
2022-08-07T01:58:28.921Z,93.40
2022-08-07T02:01:10.155Z,93.40
2022-08-07T02:04:04.105Z,93.60
2022-08-07T02:06:35.530Z,93.70
2022-08-07T02:09:07.148Z,93.90
2022-08-07T02:12:03.391Z,94.10
2022-08-07T02:14:40.473Z,94.10
2022-08-07T02:17:10.982Z,94.00
2022-08-07T02:20:04.273Z,94.20
2022-08-07T02:22:32.235Z,94.40
2022-08-07T02:25:00.108Z,94.40
2022-08-07T02:27:34.616Z,94.40
2022-08-07T02:30:07.057Z,94.50
2022-08-07T02:33:00.761Z,93.70
2022-08-07T02:36:30.213Z,93.80
2022-08-07T02:38:22.782Z,93.80
2022-08-07T02:41:03.703Z,93.90
2022-08-07T02:43:32.885Z,94.00
2022-08-07T02:46:04.557Z,95.30
2022-08-07T02:48:34.710Z,95.50
2022-08-07T02:51:28.830Z,95.50
2022-08-07T02:54:00.951Z,95.50
2022-08-07T02:56:34.701Z,95.40
2022-08-07T02:59:09.597Z,95.40
2022-08-07T03:01:40.120Z,95.30
2022-08-07T03:04:13.896Z,95.10
2022-08-07T03:06:44.740Z,95.00
2022-08-07T03:09:15.017Z,94.90
2022-08-07T03:12:08.112Z,94.80
2022-08-07T03:14:52.517Z,94.80
2022-08-07T03:17:22.200Z,94.80
2022-08-07T03:19:55.131Z,94.80
2022-08-07T03:22:30.265Z,94.90
2022-08-07T03:24:59.901Z,95.10
2022-08-07T03:27:58.728Z,95.10
2022-08-07T03:30:20.761Z,95.10
2022-08-07T03:32:59.238Z,95.00
2022-08-07T03:35:43.660Z,95.00
2022-08-07T03:38:20.932Z,94.90
2022-08-07T03:40:57.239Z,94.90
2022-08-07T03:43:26.665Z,94.80
2022-08-07T03:46:01.828Z,94.80
2022-08-07T03:48:32.055Z,94.70
2022-08-07T03:51:03.333Z,95.70
2022-08-07T03:54:05.726Z,95.40
2022-08-07T03:56:32.522Z,95.60
2022-08-07T03:59:12.697Z,95.30
2022-08-07T04:01:43.267Z,95.10
2022-08-07T04:04:17.252Z,95.10
2022-08-07T04:06:45.577Z,94.70
2022-08-07T04:09:16.005Z,94.60
2022-08-07T04:12:27.296Z,94.70
2022-08-07T04:14:43.920Z,94.40
2022-08-07T04:17:21.314Z,94.50
2022-08-07T04:19:54.362Z,94.50
2022-08-07T04:22:28.736Z,94.50
2022-08-07T04:24:58.078Z,94.60
2022-08-07T04:27:26.580Z,94.60
2022-08-07T04:30:01.146Z,94.70
2022-08-07T04:32:34.123Z,94.60
2022-08-07T04:35:06.393Z,94.70
2022-08-07T04:38:00.951Z,94.70
2022-08-07T04:40:31.475Z,94.80
2022-08-07T04:43:01.641Z,93.70
2022-08-07T04:46:01.819Z,94.80
2022-08-07T04:48:50.937Z,94.80
2022-08-07T04:51:42.922Z,94.70
2022-08-07T04:54:33.411Z,94.60
2022-08-07T04:58:12.382Z,94.40
2022-08-07T05:00:12.593Z,94.10
2022-08-07T05:02:57.087Z,93.90
2022-08-07T05:05:52.686Z,93.70
2022-08-07T05:09:00.047Z,93.50
2022-08-07T05:11:58.495Z,93.30
2022-08-07T05:14:55.283Z,92.90
2022-08-07T05:17:51.644Z,92.80
2022-08-07T05:20:09.945Z,92.60
2022-08-07T05:22:41.431Z,92.50
2022-08-07T05:25:11.686Z,92.30
2022-08-07T05:28:15.829Z,91.90
2022-08-07T05:30:42.958Z,91.70
2022-08-07T05:33:13.616Z,91.70
2022-08-07T05:35:45.570Z,91.70
2022-08-07T05:39:00.704Z,91.60
2022-08-07T05:41:14.512Z,92.00
2022-08-07T05:44:07.711Z,92.10
2022-08-07T05:46:34.916Z,92.10
2022-08-07T05:49:11.911Z,92.20
2022-08-07T05:51:43.608Z,92.00
2022-08-07T05:54:30.959Z,91.90
2022-08-07T05:57:03.630Z,92.10
2022-08-07T05:59:46.577Z,92.20
2022-08-07T06:02:28.443Z,92.00
2022-08-07T06:05:04.599Z,92.10
2022-08-07T06:08:13.960Z,91.40
2022-08-07T06:10:24.290Z,91.30
2022-08-07T06:12:51.699Z,91.30
2022-08-07T06:15:22.688Z,91.30
2022-08-07T06:18:07.386Z,91.10
2022-08-07T06:20:50.745Z,90.90
2022-08-07T06:24:37.058Z,90.80
2022-08-07T06:26:15.051Z,90.70
2022-08-07T06:28:53.020Z,90.80
2022-08-07T06:31:20.947Z,90.70
2022-08-07T06:33:53.488Z,90.90
2022-08-07T06:36:34.772Z,90.90
2022-08-07T06:40:17.844Z,91.10
2022-08-07T06:42:01.567Z,91.00
2022-08-07T06:44:33.865Z,90.70
2022-08-07T06:47:11.990Z,90.80
2022-08-07T06:49:52.305Z,90.70
2022-08-07T06:52:36.086Z,90.60
2022-08-07T06:55:31.492Z,90.40
2022-08-07T06:58:04.720Z,90.20
2022-08-07T07:00:36.726Z,90.00
2022-08-07T07:03:08.507Z,89.00
2022-08-07T07:06:05.378Z,88.60
2022-08-07T07:08:27.347Z,88.10
2022-08-07T07:10:56.991Z,87.90
2022-08-07T07:13:55.564Z,87.60
2022-08-07T07:16:27.636Z,87.10
2022-08-07T07:19:11.506Z,87.10
2022-08-07T07:22:04.731Z,86.70
2022-08-07T07:24:42.988Z,87.20
2022-08-07T07:27:20.634Z,87.00
2022-08-07T07:30:09.156Z,86.50
2022-08-07T07:32:41.193Z,86.30
2022-08-07T07:35:12.010Z,85.10
2022-08-07T07:37:47.269Z,84.90
2022-08-07T07:40:30.097Z,84.40
2022-08-07T07:43:15.508Z,83.80
2022-08-07T07:46:37.855Z,83.10
2022-08-07T07:48:38.098Z,82.60
2022-08-07T07:51:09.444Z,82.50
2022-08-07T07:53:51.504Z,81.90
2022-08-07T07:56:30.323Z,81.70
2022-08-07T07:59:01.529Z,82.80
2022-08-07T08:02:01.888Z,82.50
2022-08-07T08:04:20.283Z,82.30
2022-08-07T08:06:54.251Z,82.90
2022-08-07T08:09:29.881Z,81.60
2022-08-07T08:12:04.958Z,80.80
2022-08-07T08:14:34.442Z,80.20
2022-08-07T08:38:06.910Z,79.20
2022-08-07T08:40:55.679Z,79.00
2022-08-07T08:43:55.878Z,77.90
2022-08-07T08:46:32.196Z,77.90
2022-08-07T08:49:07.337Z,77.30
2022-08-07T08:52:12.839Z,77.20
2022-08-07T08:54:59.308Z,77.20
2022-08-07T08:57:52.215Z,76.90
2022-08-07T09:00:19.456Z,76.20
2022-08-07T09:02:52.848Z,76.40
2022-08-07T09:05:37.079Z,76.10
2022-08-07T09:08:28.565Z,74.30
2022-08-07T09:10:55.678Z,74.30
2022-08-07T09:13:43.705Z,72.60
2022-08-07T09:16:36.535Z,71.40
2022-08-07T09:19:52.724Z,69.60
2022-08-07T09:24:32.970Z,70.60
2022-08-07T09:25:54.504Z,70.40
2022-08-07T09:30:01.234Z,69.30
2022-08-07T09:31:49.178Z,66.60
2022-08-07T09:34:29.800Z,68.50
2022-08-07T09:37:19.653Z,68.60
2022-08-07T09:39:59.129Z,68.10
2022-08-07T09:42:41.754Z,70.90
2022-08-07T09:47:24.852Z,71.40
2022-08-07T09:48:49.999Z,66.30
2022-08-07T09:52:16.729Z,64.10
2022-08-07T09:54:27.193Z,65.10
2022-08-07T09:57:29.972Z,63.20
2022-08-07T10:00:06.506Z,59.00
2022-08-07T10:04:04.704Z,56.30
2022-08-07T10:06:25.228Z,55.60
2022-08-07T10:09:42.656Z,53.00
2022-08-07T10:12:40.415Z,54.50
2022-08-07T10:15:44.105Z,54.90
2022-08-07T10:18:30.048Z,54.10
2022-08-07T10:22:13.979Z,52.40
2022-08-07T10:24:29.023Z,49.30
2022-08-07T10:27:10.272Z,48.90
2022-08-07T10:29:59.394Z,49.60
2022-08-07T10:32:53.107Z,47.20
2022-08-07T10:35:56.328Z,48.40
2022-08-07T10:38:56.740Z,45.60
2022-08-07T10:41:47.290Z,45.00
2022-08-07T10:44:45.496Z,43.40
2022-08-07T10:47:27.076Z,45.60
2022-08-07T10:50:19.711Z,43.80
2022-08-07T10:53:08.125Z,45.30
2022-08-07T10:55:44.701Z,43.80
2022-08-07T10:58:40.511Z,44.90
2022-08-07T11:01:22.219Z,44.40
2022-08-07T11:04:32.337Z,42.80
2022-08-07T11:07:59.237Z,42.10
2022-08-07T11:10:42.809Z,40.50
2022-08-07T11:14:45.363Z,41.50
2022-08-07T11:16:34.126Z,40.90
2022-08-07T11:19:21.644Z,40.90
2022-08-07T11:22:18.945Z,40.30
2022-08-07T11:25:11.775Z,41.60
2022-08-07T11:28:04.112Z,40.20
2022-08-07T11:31:08.574Z,39.60
2022-08-07T11:34:00.428Z,39.10
2022-08-07T11:36:47.557Z,39.90
2022-08-07T11:40:00.274Z,37.30
2022-08-07T11:43:29.550Z,38.10
2022-08-07T11:46:24.549Z,41.00
2022-08-07T11:49:50.717Z,40.60
2022-08-07T11:52:29.511Z,39.10
2022-08-07T11:56:09.494Z,38.60
2022-08-07T11:58:38.859Z,37.80
2022-08-07T12:01:20.394Z,37.20
2022-08-07T12:04:05.885Z,37.30
2022-08-07T12:06:37.604Z,37.10
2022-08-07T12:09:23.446Z,38.80
2022-08-07T12:12:12.388Z,39.60
2022-08-07T12:14:55.282Z,39.20
2022-08-07T12:17:33.729Z,38.30
2022-08-07T12:20:30.250Z,37.90
2022-08-07T12:24:05.517Z,37.50
2022-08-07T12:26:46.985Z,37.00
2022-08-07T12:29:38.204Z,37.40
2022-08-07T12:32:23.306Z,38.00
2022-08-07T12:34:56.122Z,36.30
2022-08-07T12:37:28.448Z,36.80
2022-08-07T12:40:43.580Z,37.10
2022-08-07T12:43:09.392Z,37.10
2022-08-07T12:45:50.303Z,37.40
2022-08-07T12:48:41.541Z,37.90
2022-08-07T12:51:19.606Z,39.20
2022-08-07T12:54:02.639Z,40.90
2022-08-07T12:56:51.347Z,42.40
2022-08-07T12:59:33.334Z,43.20
2022-08-07T13:02:33.213Z,45.10
2022-08-07T13:06:03.376Z,45.40
2022-08-07T13:08:29.497Z,45.20
2022-08-07T13:12:02.189Z,45.50
2022-08-07T13:14:50.901Z,45.70
2022-08-07T13:17:21.334Z,48.00
2022-08-07T13:19:52.957Z,48.10
2022-08-07T13:22:41.432Z,47.40
2022-08-07T13:25:29.074Z,47.70
2022-08-07T13:28:10.769Z,48.30
2022-08-07T13:30:52.147Z,47.90
2022-08-07T13:34:30.565Z,46.00
2022-08-07T13:36:47.777Z,46.70
2022-08-07T13:40:34.268Z,46.10
2022-08-07T13:42:27.980Z,45.60
2022-08-07T13:46:06.461Z,45.50
2022-08-07T13:48:07.865Z,45.10
2022-08-07T13:50:44.800Z,43.80
2022-08-07T13:53:26.467Z,41.90
2022-08-07T13:56:18.860Z,41.00
2022-08-07T13:59:00.991Z,40.10
2022-08-07T14:01:50.783Z,40.10
2022-08-07T14:04:21.388Z,40.80
2022-08-07T14:06:50.505Z,41.60
2022-08-07T14:10:02.819Z,41.80
2022-08-07T14:12:42.001Z,41.00
2022-08-07T14:15:39.595Z,39.90
2022-08-07T14:18:29.240Z,40.70
2022-08-07T14:21:20.692Z,41.30
2022-08-07T14:24:09.654Z,41.20
2022-08-07T14:26:50.712Z,40.80
2022-08-07T14:30:07.187Z,39.20
2022-08-07T14:32:29.984Z,38.20
2022-08-07T14:35:01.487Z,38.20
2022-08-07T14:37:36.161Z,38.70
2022-08-07T14:40:17.893Z,39.50
2022-08-07T14:43:58.663Z,40.60
2022-08-07T14:45:54.653Z,41.50
2022-08-07T14:48:27.296Z,42.50
2022-08-07T14:50:56.964Z,42.70
2022-08-07T14:54:08.825Z,43.90
2022-08-07T14:56:15.725Z,44.70
2022-08-07T14:58:59.697Z,46.40
2022-08-07T15:01:40.358Z,46.40
2022-08-07T15:04:11.299Z,46.30
2022-08-07T15:06:38.716Z,47.20
2022-08-07T15:12:09.050Z,43.80
2022-08-07T15:13:05.804Z,47.50
2022-08-07T15:14:56.016Z,44.10
2022-08-07T15:17:32.511Z,44.40
2022-08-07T15:20:32.797Z,44.20
2022-08-07T15:23:20.200Z,42.70
2022-08-07T15:25:52.088Z,43.50
2022-08-07T15:31:09.713Z,45.40
2022-08-07T15:33:39.083Z,46.60
2022-08-07T15:36:10.277Z,47.10
2022-08-07T15:38:59.390Z,47.50
2022-08-07T15:42:44.206Z,47.80
2022-08-07T15:44:15.354Z,48.40
2022-08-07T15:46:51.844Z,47.10
2022-08-07T15:49:25.610Z,47.50
2022-08-07T15:52:13.950Z,48.20
2022-08-07T15:54:44.425Z,46.40
2022-08-07T15:57:40.338Z,46.70
2022-08-07T16:00:07.193Z,46.30
2022-08-07T16:02:46.612Z,45.50
2022-08-07T16:05:17.572Z,47.20
2022-08-07T16:08:33.521Z,46.20
2022-08-07T16:10:48.641Z,48.30
2022-08-07T16:13:58.324Z,46.50
2022-08-07T16:16:47.667Z,46.90
2022-08-07T16:19:42.083Z,48.70
2022-08-07T16:22:31.819Z,48.90
2022-08-07T16:25:07.554Z,49.20
2022-08-07T16:27:39.744Z,49.00
2022-08-07T16:30:31.837Z,49.00
2022-08-07T16:34:02.860Z,49.80
2022-08-07T16:36:31.232Z,49.00
2022-08-07T16:39:40.255Z,51.30
2022-08-07T16:42:41.390Z,51.10
2022-08-07T16:46:11.002Z,51.70
2022-08-07T16:50:20.231Z,51.70
2022-08-07T16:52:50.649Z,54.30
2022-08-07T16:55:29.046Z,55.80
2022-08-07T16:58:15.878Z,56.90
2022-08-07T17:01:01.964Z,59.50
2022-08-07T17:03:59.611Z,60.90
2022-08-07T17:06:42.664Z,61.80
2022-08-07T17:10:06.939Z,63.20
2022-08-07T17:12:34.077Z,60.20
2022-08-07T17:15:44.398Z,61.20
2022-08-07T17:18:36.771Z,67.50
2022-08-07T17:21:23.611Z,68.00
2022-08-07T17:24:23.617Z,67.90
2022-08-07T17:27:05.868Z,67.90
2022-08-07T17:30:14.047Z,68.40
2022-08-07T17:34:10.257Z,68.50
2022-08-07T17:36:20.881Z,69.40
2022-08-07T17:39:10.557Z,68.90
2022-08-07T17:42:07.015Z,68.10
2022-08-07T17:44:48.716Z,67.80
2022-08-07T17:47:42.650Z,67.90
2022-08-07T17:50:30.421Z,67.50
2022-08-07T17:53:06.107Z,67.20
2022-08-07T17:56:01.117Z,66.70
2022-08-07T17:58:50.378Z,67.00
2022-08-07T18:01:36.591Z,67.00
2022-08-07T18:04:31.028Z,67.80
2022-08-07T18:07:20.725Z,67.80
2022-08-07T18:10:29.232Z,68.40
2022-08-07T18:13:20.541Z,68.50
2022-08-07T18:16:15.484Z,69.10
2022-08-07T18:21:07.007Z,68.30
2022-08-07T18:22:17.088Z,69.30
2022-08-07T18:24:51.068Z,70.70
2022-08-07T18:27:39.248Z,72.00
2022-08-07T18:30:31.645Z,72.30
2022-08-07T18:33:10.577Z,72.60
2022-08-07T18:35:51.579Z,73.60
2022-08-07T18:38:59.083Z,73.80
2022-08-07T18:41:22.414Z,74.90
2022-08-07T18:44:00.401Z,74.90
2022-08-07T18:46:49.809Z,75.00
2022-08-07T18:50:30.245Z,76.00
2022-08-07T18:52:40.984Z,75.20
2022-08-07T18:55:42.043Z,75.60
2022-08-07T18:58:24.443Z,76.30
2022-08-07T19:02:32.103Z,76.20
2022-08-07T19:04:03.836Z,72.60
2022-08-07T19:06:48.216Z,79.40
2022-08-07T19:12:48.963Z,79.50
2022-08-07T19:16:05.403Z,79.40
2022-08-07T19:19:31.976Z,79.40
2022-08-07T19:22:16.928Z,79.60
2022-08-07T19:24:48.772Z,79.80
2022-08-07T19:28:58.620Z,79.70
2022-08-07T19:31:00.218Z,79.80
2022-08-07T19:33:10.232Z,79.80
2022-08-07T19:35:42.071Z,79.90
2022-08-07T19:38:16.995Z,79.80
2022-08-07T19:40:50.472Z,79.90
2022-08-07T19:43:46.070Z,80.00
2022-08-07T19:46:17.845Z,80.10
2022-08-07T19:48:55.839Z,80.00
2022-08-07T19:51:51.853Z,80.10
2022-08-07T19:54:31.282Z,80.30
2022-08-07T19:58:02.803Z,80.60
2022-08-07T19:59:57.221Z,80.50
2022-08-07T20:02:38.927Z,80.70
2022-08-07T20:05:09.717Z,80.80
2022-08-07T20:07:47.691Z,80.70
2022-08-07T20:10:38.239Z,80.80
2022-08-07T20:13:22.566Z,81.00
2022-08-07T20:15:50.994Z,81.00
2022-08-07T20:18:22.004Z,81.00
2022-08-07T20:21:03.057Z,81.40
2022-08-07T20:23:33.059Z,81.10
2022-08-07T20:26:13.041Z,81.60
2022-08-07T20:28:51.869Z,81.80
2022-08-07T20:31:21.236Z,81.70
2022-08-07T20:34:03.822Z,81.70
2022-08-07T20:36:31.635Z,82.00
2022-08-07T20:39:00.507Z,82.10
2022-08-07T20:41:41.213Z,82.30
2022-08-07T20:44:12.707Z,82.50
2022-08-07T20:46:44.662Z,82.60
2022-08-07T20:50:00.876Z,82.70
2022-08-07T20:52:09.368Z,82.80
2022-08-07T20:54:45.691Z,82.90
2022-08-07T20:57:28.627Z,83.10
2022-08-07T21:00:09.222Z,83.20
2022-08-07T21:03:12.308Z,83.50
2022-08-07T21:05:54.591Z,84.00
2022-08-07T21:08:36.927Z,83.90
2022-08-07T21:11:12.236Z,83.90
2022-08-07T21:14:16.195Z,83.90
2022-08-07T21:17:06.516Z,84.40
2022-08-07T21:19:51.670Z,84.80
2022-08-07T21:22:28.325Z,85.40
2022-08-07T21:25:24.498Z,85.40
2022-08-07T21:28:47.580Z,85.80
2022-08-07T21:31:05.335Z,85.90
2022-08-07T21:33:44.926Z,86.30
2022-08-07T21:36:36.208Z,86.40
2022-08-07T21:39:56.424Z,86.50
2022-08-07T21:42:48.870Z,86.60
2022-08-07T21:46:05.351Z,86.80
2022-08-07T21:48:28.768Z,87.30
2022-08-07T21:51:54.515Z,87.30
2022-08-07T21:54:35.977Z,87.80
2022-08-07T21:57:30.890Z,88.10
2022-08-07T22:00:05.795Z,88.30
2022-08-07T22:02:58.220Z,88.60
2022-08-07T22:05:46.017Z,89.00
2022-08-07T22:08:18.444Z,89.10
2022-08-07T22:10:50.210Z,89.20
2022-08-07T22:13:24.359Z,89.20
2022-08-07T22:16:44.520Z,89.20
2022-08-07T22:19:23.776Z,89.20
2022-08-07T22:22:27.808Z,89.30
2022-08-07T22:25:12.708Z,89.60
2022-08-07T22:28:07.570Z,89.60
2022-08-07T22:30:35.876Z,89.50
2022-08-07T22:33:05.426Z,89.70
2022-08-07T22:35:48.602Z,90.00
2022-08-07T22:38:47.858Z,90.10
2022-08-07T22:41:22.145Z,90.20
2022-08-07T22:44:18.560Z,90.30
2022-08-07T22:47:03.378Z,90.50
2022-08-07T22:49:59.884Z,90.50
2022-08-07T22:52:58.730Z,90.60
2022-08-07T22:55:37.691Z,90.60
2022-08-07T22:58:38.838Z,90.70
2022-08-07T23:01:50.885Z,90.80
2022-08-07T23:04:56.889Z,90.90
2022-08-07T23:07:44.804Z,91.10
2022-08-07T23:10:37.539Z,91.20
2022-08-07T23:13:07.567Z,91.30
2022-08-07T23:16:07.386Z,91.20
2022-08-07T23:19:16.992Z,91.30
2022-08-07T23:22:04.197Z,91.50
2022-08-07T23:24:53.791Z,91.60
2022-08-07T23:28:20.402Z,91.60
2022-08-07T23:30:45.873Z,91.70
2022-08-07T23:34:35.022Z,91.90
2022-08-07T23:37:20.287Z,92.20
2022-08-07T23:40:08.275Z,92.30
2022-08-07T23:42:59.839Z,92.40
2022-08-07T23:46:10.439Z,92.50
2022-08-07T23:49:15.510Z,92.50
2022-08-07T23:53:05.675Z,92.60
2022-08-07T23:54:46.859Z,92.70
2022-08-07T23:57:37.021Z,92.80
